Time;durP1;ratioP1;P1;durP2;ratioP2;P2;SDS_P1;SDS_P2;PMS_P1;PMS_P2;Temp;Humidity;BMP_temperature;BMP_pressure;BME280_temperature;BME280_humidity;BME280_pressure;Samples;Min_cycle;Max_cycle;Signal;HPM_P1;HPM_P2
2024/01/11 00:02:10;;;;;;;16.77;9.53;;;;;;;;;;6254653;22;20377;-91
2024/01/11 00:04:40;;;;;;;15.03;12.20;;;;;;;;;;6282907;22;20369;-92
2024/01/11 00:07:08;;;;;;;10.70;9.43;;;;;;;;;;6257732;22;20382;-92
2024/01/11 00:10:13;;;;;;;29.93;12.53;;;;;;;;;;6257384;22;20377;-91
2024/01/11 00:12:40;;;;;;;21.57;12.73;;;;;;;;;;6283255;22;20376;-92
2024/01/11 00:15:06;;;;;;;19.23;12.43;;;;;;;;;;6259351;22;20380;-91
2024/01/11 00:17:33;;;;;;;18.20;10.30;;;;;;;;;;6257301;22;21024;-92
2024/01/11 00:20:07;;;;;;;16.30;11.53;;;;;;;;;;6259727;22;20405;-91
2024/01/11 00:22:42;;;;;;;20.57;13.60;;;;;;;;;;6255555;22;20385;-91
2024/01/11 00:25:23;;;;;;;18.07;12.87;;;;;;;;;;6261076;22;20380;-92
2024/01/11 00:27:52;;;;;;;16.73;11.87;;;;;;;;;;6259622;22;20382;-91
2024/01/11 00:30:18;;;;;;;12.90;10.00;;;;;;;;;;6256954;22;20377;-91
2024/01/11 00:38:42;;;;;;;14.40;8.77;;;;;;;;;;6205378;22;20385;-92
2024/01/11 00:41:14;;;;;;;17.77;11.10;;;;;;;;;;6258266;22;20380;-89
2024/01/11 00:43:45;;;;;;;12.30;10.23;;;;;;;;;;6256120;22;20411;-91
2024/01/11 00:49:25;;;;;;;12.23;8.63;;;;;;;;;;6177653;23;20394;-93
2024/01/11 00:51:52;;;;;;;18.90;10.83;;;;;;;;;;6195209;23;20409;-92
2024/01/11 00:54:31;;;;;;;;;;;;;;;;;;;;;
2024/01/11 00:57:00;;;;;;;18.40;13.87;;;;;;;;;;6197816;23;20438;-92
2024/01/11 00:59:26;;;;;;;15.83;11.10;;;;;;;;;;6172834;23;20534;-92
2024/01/11 01:01:55;;;;;;;13.67;11.20;;;;;;;;;;6169000;23;20919;-91
2024/01/11 01:04:31;;;;;;;16.57;12.23;;;;;;;;;;6170536;23;20370;-92
2024/01/11 01:06:58;;;;;;;19.00;12.20;;;;;;;;;;6169049;23;20422;-92
2024/01/11 01:09:42;;;;;;;22.47;11.67;;;;;;;;;;6171998;23;20435;-91
2024/01/11 01:12:27;;;;;;;23.23;12.17;;;;;;;;;;6170948;23;20371;-91
2024/01/11 01:14:53;;;;;;;12.93;7.77;;;;;;;;;;6170533;23;20873;-91
2024/01/11 01:17:40;;;;;;;23.83;14.77;;;;;;;;;;6194657;23;20812;-92
2024/01/11 01:20:16;;;;;;;11.80;9.30;;;;;;;;;;6167486;23;20391;-92
2024/01/11 01:22:51;;;;;;;12.00;9.17;;;;;;;;;;6176632;23;20426;-92
2024/01/11 01:25:20;;;;;;;11.93;10.87;;;;;;;;;;6196526;23;20404;-92
2024/01/11 01:27:48;;;;;;;16.77;12.70;;;;;;;;;;6224879;23;20377;-92
2024/01/11 01:30:14;;;;;;;17.67;14.43;;;;;;;;;;6225785;23;20729;-91
2024/01/11 01:32:48;;;;;;;15.93;11.33;;;;;;;;;;6226754;23;20390;-91
2024/01/11 01:35:14;;;;;;;11.87;9.53;;;;;;;;;;6227216;22;20382;-91
2024/01/11 01:37:42;;;;;;;21.80;10.90;;;;;;;;;;6225295;23;20421;-91
2024/01/11 01:40:12;;;;;;;15.73;11.33;;;;;;;;;;6227642;23;20382;-91
2024/01/11 01:42:43;;;;;;;14.57;10.50;;;;;;;;;;6225771;23;20454;-91
2024/01/11 01:45:15;;;;;;;20.07;12.47;;;;;;;;;;6226422;23;20820;-92
2024/01/11 01:47:55;;;;;;;18.70;9.90;;;;;;;;;;6226417;23;20450;-90
2024/01/11 01:50:21;;;;;;;20.37;14.00;;;;;;;;;;6236326;22;20385;-91
2024/01/11 01:52:55;;;;;;;20.67;10.67;;;;;;;;;;6255338;22;20381;-91
2024/01/11 01:55:21;;;;;;;25.50;12.63;;;;;;;;;;6260429;22;20374;-91
2024/01/11 01:57:50;;;;;;;17.70;15.10;;;;;;;;;;6256235;22;20815;-92
2024/01/11 02:00:19;;;;;;;21.43;11.57;;;;;;;;;;6257753;22;20411;-91
2024/01/11 02:02:45;;;;;;;20.27;11.43;;;;;;;;;;6255306;22;20365;-91
2024/01/11 02:05:17;;;;;;;19.73;10.43;;;;;;;;;;6256817;22;20380;-91
2024/01/11 02:07:47;;;;;;;19.93;12.43;;;;;;;;;;6256691;22;20386;-91
2024/01/11 02:10:16;;;;;;;12.47;9.13;;;;;;;;;;6257499;22;21180;-92
2024/01/11 02:13:08;;;;;;;19.80;10.93;;;;;;;;;;6257072;22;21021;-92
2024/01/11 02:15:38;;;;;;;19.43;11.23;;;;;;;;;;6276387;22;20446;-91
2024/01/11 02:18:05;;;;;;;39.97;10.53;;;;;;;;;;6257603;22;20400;-90
2024/01/11 02:20:37;;;;;;;16.83;10.80;;;;;;;;;;6258579;22;20388;-91
2024/01/11 02:23:09;;;;;;;14.20;11.90;;;;;;;;;;6259921;22;20465;-91
2024/01/11 02:25:35;;;;;;;21.43;10.17;;;;;;;;;;6262530;22;20373;-92
2024/01/11 02:28:04;;;;;;;20.20;13.77;;;;;;;;;;6259545;22;20381;-92
2024/01/11 02:30:33;;;;;;;16.87;12.93;;;;;;;;;;6197320;23;20383;-91
2024/01/11 02:33:03;;;;;;;17.30;10.57;;;;;;;;;;6171335;23;20382;-91
2024/01/11 02:35:29;;;;;;;22.93;12.27;;;;;;;;;;6172412;23;20405;-92
2024/01/11 02:37:56;;;;;;;19.93;10.13;;;;;;;;;;6170967;23;21085;-91
2024/01/11 02:40:22;;;;;;;20.37;8.33;;;;;;;;;;6171011;23;21064;-91
2024/01/11 02:42:48;;;;;;;19.70;10.07;;;;;;;;;;6171975;23;20398;-91
2024/01/11 02:45:18;;;;;;;17.53;10.00;;;;;;;;;;6171044;23;20394;-91
2024/01/11 02:47:47;;;;;;;20.50;10.50;;;;;;;;;;6171689;23;20390;-90
2024/01/11 02:50:13;;;;;;;15.17;9.60;;;;;;;;;;6170627;22;21021;-91
2024/01/11 02:52:39;;;;;;;18.63;10.83;;;;;;;;;;6170269;23;20383;-91
2024/01/11 02:55:06;;;;;;;24.10;11.13;;;;;;;;;;6169314;23;20387;-90
2024/01/11 02:57:37;;;;;;;14.53;11.83;;;;;;;;;;6169694;23;20403;-91
2024/01/11 03:00:03;;;;;;;13.53;10.83;;;;;;;;;;6174330;23;20427;-91
2024/01/11 03:02:30;;;;;;;19.83;13.57;;;;;;;;;;6251208;22;20381;-91
2024/01/11 03:04:59;;;;;;;13.03;8.37;;;;;;;;;;6260166;22;20965;-90
2024/01/11 03:07:29;;;;;;;15.63;10.73;;;;;;;;;;6260399;22;20377;-90
2024/01/11 03:09:56;;;;;;;11.93;10.60;;;;;;;;;;6261784;22;20735;-91
2024/01/11 03:12:28;;;;;;;21.50;9.47;;;;;;;;;;6258815;22;20358;-91
2024/01/11 03:15:03;;;;;;;19.57;13.03;;;;;;;;;;6262833;22;20372;-91
2024/01/11 03:17:30;;;;;;;18.83;9.87;;;;;;;;;;6260297;22;20713;-91
2024/01/11 03:19:56;;;;;;;21.90;11.50;;;;;;;;;;6260750;22;20392;-90
2024/01/11 03:22:27;;;;;;;14.93;9.70;;;;;;;;;;6259924;22;20366;-91
2024/01/11 03:24:55;;;;;;;19.77;9.27;;;;;;;;;;6286551;22;20361;-91
2024/01/11 03:27:24;;;;;;;14.80;11.90;;;;;;;;;;6285838;22;20361;-91
2024/01/11 03:29:50;;;;;;;15.90;12.13;;;;;;;;;;6260524;22;20887;-91
2024/01/11 03:32:16;;;;;;;16.53;11.27;;;;;;;;;;6260958;22;20388;-91
2024/01/11 03:34:50;;;;;;;19.37;10.73;;;;;;;;;;6286149;22;20419;-90
2024/01/11 03:37:16;;;;;;;41.50;13.70;;;;;;;;;;6259978;22;20531;-92
2024/01/11 03:39:42;;;;;;;16.93;10.47;;;;;;;;;;6259967;22;21132;-92
2024/01/11 03:42:09;;;;;;;22.47;12.97;;;;;;;;;;6287308;22;20371;-91
2024/01/11 03:44:37;;;;;;;20.00;12.93;;;;;;;;;;6262030;22;20419;-90
2024/01/11 03:47:03;;;;;;;21.10;11.67;;;;;;;;;;6260139;22;20461;-91
2024/01/11 03:49:32;;;;;;;19.07;11.80;;;;;;;;;;6261853;22;20381;-93
2024/01/11 03:51:58;;;;;;;21.70;10.50;;;;;;;;;;6258575;22;20396;-92
2024/01/11 03:54:24;;;;;;;17.33;10.33;;;;;;;;;;6262277;22;20386;-92
2024/01/11 03:56:50;;;;;;;17.57;11.20;;;;;;;;;;6261173;22;20499;-92
2024/01/11 03:59:16;;;;;;;14.87;11.30;;;;;;;;;;6285448;22;20358;-92
2024/01/11 04:01:42;;;;;;;13.20;10.37;;;;;;;;;;6261065;22;20373;-93
2024/01/11 04:04:08;;;;;;;12.17;8.50;;;;;;;;;;6260456;22;20376;-93
2024/01/11 04:06:34;;;;;;;18.07;11.40;;;;;;;;;;6258595;22;20419;-92
2024/01/11 04:09:00;;;;;;;22.87;15.40;;;;;;;;;;6261063;22;20370;-91
2024/01/11 04:11:30;;;;;;;14.50;12.30;;;;;;;;;;6259355;22;20381;-92
2024/01/11 04:13:56;;;;;;;9.77;8.83;;;;;;;;;;6260165;22;20404;-93
2024/01/11 04:16:22;;;;;;;18.60;9.10;;;;;;;;;;6283130;22;20417;-90
2024/01/11 04:18:49;;;;;;;14.07;9.23;;;;;;;;;;6261468;22;20409;-91
2024/01/11 04:21:25;;;;;;;22.97;11.83;;;;;;;;;;6260405;22;20387;-92
2024/01/11 04:23:51;;;;;;;30.93;16.03;;;;;;;;;;6259983;22;20389;-92
2024/01/11 04:26:17;;;;;;;23.70;9.50;;;;;;;;;;6257441;22;20848;-91
2024/01/11 04:28:45;;;;;;;13.17;7.60;;;;;;;;;;6259842;22;20440;-92
2024/01/11 04:31:11;;;;;;;23.10;12.27;;;;;;;;;;6285309;22;20385;-91
2024/01/11 04:33:40;;;;;;;13.50;11.97;;;;;;;;;;6260242;22;20389;-92
2024/01/11 04:36:06;;;;;;;19.73;12.83;;;;;;;;;;6259574;22;20421;-91
2024/01/11 04:38:32;;;;;;;22.57;12.87;;;;;;;;;;6261953;22;20373;-91
2024/01/11 04:40:58;;;;;;;21.67;12.10;;;;;;;;;;6260849;22;20408;-94
2024/01/11 04:43:24;;;;;;;31.10;14.50;;;;;;;;;;6261004;22;20409;-92
2024/01/11 04:45:50;;;;;;;16.73;12.03;;;;;;;;;;6262004;22;20725;-91
2024/01/11 04:48:16;;;;;;;16.40;10.90;;;;;;;;;;6259007;22;20459;-91
2024/01/11 04:50:43;;;;;;;20.20;10.80;;;;;;;;;;6260300;22;20405;-92
2024/01/11 04:53:09;;;;;;;15.67;12.83;;;;;;;;;;6259705;22;20382;-91
2024/01/11 04:55:35;;;;;;;14.33;9.57;;;;;;;;;;6258975;22;20381;-91
2024/01/11 04:58:01;;;;;;;14.80;8.10;;;;;;;;;;6257510;22;20447;-92
2024/01/11 05:00:27;;;;;;;18.53;11.03;;;;;;;;;;6258894;22;20378;-91
2024/01/11 05:02:53;;;;;;;19.60;10.63;;;;;;;;;;6259474;22;20472;-92
2024/01/11 05:05:19;;;;;;;23.07;13.07;;;;;;;;;;6259418;22;20378;-92
2024/01/11 05:07:46;;;;;;;21.40;13.40;;;;;;;;;;6260017;22;20411;-91
2024/01/11 05:10:12;;;;;;;25.13;10.57;;;;;;;;;;6260343;22;20387;-91
2024/01/11 05:12:38;;;;;;;23.77;12.43;;;;;;;;;;6259087;22;20393;-91
2024/01/11 05:15:06;;;;;;;15.73;10.17;;;;;;;;;;6260445;22;20887;-91
2024/01/11 05:17:32;;;;;;;22.23;12.63;;;;;;;;;;6258942;22;20448;-90
2024/01/11 05:19:58;;;;;;;13.00;9.37;;;;;;;;;;6260191;22;20911;-92
2024/01/11 05:22:24;;;;;;;16.57;10.57;;;;;;;;;;6260087;22;20373;-91
2024/01/11 05:24:50;;;;;;;15.17;9.47;;;;;;;;;;6259152;22;20724;-93
2024/01/11 05:27:16;;;;;;;21.03;10.23;;;;;;;;;;6258170;22;20369;-91
2024/01/11 05:29:42;;;;;;;15.97;11.17;;;;;;;;;;6259411;22;20369;-94
2024/01/11 05:32:08;;;;;;;17.20;9.70;;;;;;;;;;6259222;22;20849;-91
2024/01/11 05:34:34;;;;;;;23.00;11.27;;;;;;;;;;6259858;22;20373;-90
2024/01/11 05:37:00;;;;;;;15.97;8.90;;;;;;;;;;6260993;22;20417;-92
2024/01/11 05:39:26;;;;;;;13.20;11.00;;;;;;;;;;6262724;22;20389;-92
2024/01/11 05:41:52;;;;;;;17.53;11.70;;;;;;;;;;6258498;22;20435;-92
2024/01/11 05:44:19;;;;;;;17.07;10.97;;;;;;;;;;6259915;22;20387;-91
2024/01/11 05:46:45;;;;;;;17.97;10.37;;;;;;;;;;6258737;22;20393;-91
2024/01/11 05:49:11;;;;;;;15.23;10.57;;;;;;;;;;6260349;22;20397;-92
2024/01/11 05:51:37;;;;;;;28.03;11.13;;;;;;;;;;6259233;22;20388;-91
2024/01/11 05:54:03;;;;;;;14.77;9.03;;;;;;;;;;6259233;22;20378;-92
2024/01/11 05:56:29;;;;;;;18.57;11.37;;;;;;;;;;6258871;22;20740;-92
2024/01/11 05:58:55;;;;;;;13.33;10.20;;;;;;;;;;6261007;22;20373;-92
2024/01/11 06:01:27;;;;;;;20.77;11.03;;;;;;;;;;6261423;22;20912;-91
2024/01/11 06:03:58;;;;;;;13.03;9.97;;;;;;;;;;6261727;22;20450;-92
2024/01/11 06:06:25;;;;;;;24.47;11.77;;;;;;;;;;6260818;22;20377;-92
2024/01/11 06:08:51;;;;;;;19.00;9.77;;;;;;;;;;6258537;22;20445;-92
2024/01/11 06:11:18;;;;;;;13.30;9.63;;;;;;;;;;6260966;22;20385;-93
2024/01/11 06:13:44;;;;;;;22.87;12.20;;;;;;;;;;6258841;22;20392;-91
2024/01/11 06:16:15;;;;;;;17.13;9.77;;;;;;;;;;6258963;22;20425;-93
2024/01/11 06:18:41;;;;;;;15.37;11.93;;;;;;;;;;6258117;22;20776;-91
2024/01/11 06:21:08;;;;;;;22.93;12.17;;;;;;;;;;6261172;22;20849;-93
2024/01/11 06:23:39;;;;;;;13.53;11.23;;;;;;;;;;6257651;22;20386;-93
2024/01/11 06:26:05;;;;;;;15.03;11.27;;;;;;;;;;6259483;22;20373;-92
2024/01/11 06:28:32;;;;;;;20.03;12.07;;;;;;;;;;6260349;22;20911;-91
2024/01/11 06:30:58;;;;;;;21.93;13.93;;;;;;;;;;6261008;22;20377;-90
2024/01/11 06:33:27;;;;;;;20.43;11.30;;;;;;;;;;6259389;22;20400;-93
2024/01/11 06:35:57;;;;;;;15.80;8.30;;;;;;;;;;6262342;22;20431;-92
2024/01/11 06:38:26;;;;;;;11.47;8.70;;;;;;;;;;6258238;22;20420;-91
2024/01/11 06:40:53;;;;;;;19.80;12.10;;;;;;;;;;6263398;22;20369;-89
2024/01/11 06:43:25;;;;;;;19.83;14.17;;;;;;;;;;6260971;22;20400;-90
2024/01/11 06:45:52;;;;;;;19.03;10.37;;;;;;;;;;6261119;22;20911;-91
2024/01/11 06:48:18;;;;;;;17.33;11.47;;;;;;;;;;6261184;22;20389;-92
2024/01/11 06:50:44;;;;;;;17.30;10.13;;;;;;;;;;6260415;22;20401;-90
2024/01/11 06:53:16;;;;;;;21.27;10.80;;;;;;;;;;6260110;22;20369;-91
2024/01/11 06:55:43;;;;;;;16.93;12.57;;;;;;;;;;6286725;22;20369;-91
2024/01/11 06:58:12;;;;;;;21.37;11.73;;;;;;;;;;6259363;22;20381;-90
2024/01/11 07:00:42;;;;;;;42.70;15.53;;;;;;;;;;6287881;22;20353;-92
2024/01/11 07:03:10;;;;;;;13.50;9.80;;;;;;;;;;6263246;22;20383;-91
2024/01/11 07:05:36;;;;;;;19.80;10.03;;;;;;;;;;6261558;22;20391;-92
2024/01/11 07:08:02;;;;;;;21.23;15.30;;;;;;;;;;6261665;22;20378;-91
2024/01/11 07:10:28;;;;;;;14.47;11.60;;;;;;;;;;6258719;22;20508;-91
2024/01/11 07:12:54;;;;;;;26.70;11.50;;;;;;;;;;6264563;22;20397;-91
2024/01/11 07:15:20;;;;;;;24.10;11.50;;;;;;;;;;6262136;22;20498;-92
2024/01/11 07:17:55;;;;;;;15.70;10.17;;;;;;;;;;6262619;22;20439;-91
2024/01/11 07:20:26;;;;;;;17.83;11.73;;;;;;;;;;6288643;22;20387;-93
2024/01/11 07:22:52;;;;;;;19.30;10.67;;;;;;;;;;6262556;22;20420;-94
2024/01/11 07:25:32;;;;;;;17.20;11.30;;;;;;;;;;6215058;23;20394;-91
2024/01/11 07:28:06;;;;;;;15.53;9.00;;;;;;;;;;6233082;22;20481;-90
2024/01/11 07:30:33;;;;;;;13.87;9.37;;;;;;;;;;6255648;22;20390;-93
2024/01/11 07:33:11;;;;;;;29.77;17.20;;;;;;;;;;6231142;22;20390;-92
2024/01/11 07:35:45;;;;;;;16.87;10.93;;;;;;;;;;6232850;22;20390;-93
2024/01/11 07:38:11;;;;;;;20.83;11.57;;;;;;;;;;6233510;23;20396;-93
2024/01/11 07:40:40;;;;;;;21.90;9.60;;;;;;;;;;6233779;23;20401;-94
2024/01/11 07:43:06;;;;;;;14.73;11.33;;;;;;;;;;6232663;23;20377;-94
2024/01/11 07:45:32;;;;;;;21.30;11.17;;;;;;;;;;6206780;22;20386;-94
2024/01/11 07:48:05;;;;;;;14.20;9.37;;;;;;;;;;6231290;23;20378;-94
2024/01/11 07:50:31;;;;;;;17.10;9.00;;;;;;;;;;6232801;23;20382;-95
2024/01/11 07:52:57;;;;;;;20.97;12.33;;;;;;;;;;6230465;22;20363;-91
2024/01/11 07:55:30;;;;;;;23.33;12.40;;;;;;;;;;6229472;22;20405;-89
2024/01/11 07:57:56;;;;;;;12.17;10.27;;;;;;;;;;6228159;23;20441;-91
2024/01/11 08:00:22;;;;;;;18.70;9.93;;;;;;;;;;6229732;22;20390;-92
2024/01/11 08:02:48;;;;;;;25.70;13.60;;;;;;;;;;6225630;22;20398;-93
2024/01/11 08:05:14;;;;;;;16.73;9.83;;;;;;;;;;6202456;23;20378;-93
2024/01/11 08:07:41;;;;;;;16.83;10.97;;;;;;;;;;6224227;23;20383;-91
2024/01/11 08:10:09;;;;;;;23.97;12.87;;;;;;;;;;6203811;22;20889;-93
2024/01/11 08:12:35;;;;;;;21.53;13.13;;;;;;;;;;6202526;22;20402;-92
2024/01/11 08:15:01;;;;;;;12.37;9.90;;;;;;;;;;6204564;22;20390;-94
2024/01/11 08:17:30;;;;;;;16.80;8.67;;;;;;;;;;6226701;23;20495;-92
2024/01/11 08:19:56;;;;;;;15.20;11.63;;;;;;;;;;6227426;22;20405;-91
2024/01/11 08:22:23;;;;;;;19.10;12.77;;;;;;;;;;6200665;23;20382;-93
2024/01/11 08:24:57;;;;;;;14.50;9.03;;;;;;;;;;6199790;23;20395;-93
2024/01/11 08:27:27;;;;;;;11.13;8.93;;;;;;;;;;6220797;22;20452;-93
2024/01/11 08:29:53;;;;;;;14.40;9.93;;;;;;;;;;6225544;22;20403;-92
2024/01/11 08:32:19;;;;;;;17.93;11.77;;;;;;;;;;6224665;22;20410;-93
2024/01/11 08:34:45;;;;;;;24.50;13.27;;;;;;;;;;6199146;22;20466;-92
2024/01/11 08:37:11;;;;;;;18.33;11.70;;;;;;;;;;6198833;23;21024;-93
2024/01/11 08:39:38;;;;;;;21.50;10.67;;;;;;;;;;6202586;23;20398;-94
2024/01/11 08:42:04;;;;;;;18.37;10.90;;;;;;;;;;6200221;22;20478;-92
2024/01/11 08:44:30;;;;;;;21.03;11.83;;;;;;;;;;6198804;23;20402;-93
2024/01/11 08:46:58;;;;;;;23.23;12.27;;;;;;;;;;6200465;23;20397;-91
2024/01/11 08:49:25;;;;;;;22.37;14.10;;;;;;;;;;6199989;23;20392;-92
2024/01/11 08:51:51;;;;;;;26.13;13.27;;;;;;;;;;6200384;22;20867;-92
2024/01/11 08:54:17;;;;;;;20.57;11.83;;;;;;;;;;6197171;23;20387;-93
2024/01/11 08:56:45;;;;;;;19.20;14.43;;;;;;;;;;6200321;23;20423;-92
2024/01/11 08:59:12;;;;;;;24.13;14.70;;;;;;;;;;6201128;22;20423;-93
2024/01/11 09:01:43;;;;;;;16.90;12.00;;;;;;;;;;6207470;22;20462;-95
2024/01/11 09:04:13;;;;;;;16.30;10.80;;;;;;;;;;6204043;22;20399;-92
2024/01/11 09:06:40;;;;;;;15.93;11.60;;;;;;;;;;6198083;23;20418;-92
2024/01/11 09:09:10;;;;;;;15.60;12.57;;;;;;;;;;6204469;23;20416;-90
2024/01/11 09:11:37;;;;;;;15.90;11.17;;;;;;;;;;6201851;23;20403;-92
2024/01/11 09:14:03;;;;;;;22.87;13.73;;;;;;;;;;6200665;22;20383;-92
2024/01/11 09:16:29;;;;;;;21.90;12.33;;;;;;;;;;6202094;23;20430;-93
2024/01/11 09:18:56;;;;;;;27.00;16.13;;;;;;;;;;6199345;22;20391;-93
2024/01/11 09:21:22;;;;;;;25.10;14.03;;;;;;;;;;6198158;23;20704;-91
2024/01/11 09:23:48;;;;;;;29.67;13.73;;;;;;;;;;6202186;22;20398;-92
2024/01/11 09:26:14;;;;;;;23.07;11.97;;;;;;;;;;6201984;23;20383;-92
2024/01/11 09:28:52;;;;;;;27.00;16.23;;;;;;;;;;6204885;23;20402;-91
2024/01/11 09:31:18;;;;;;;24.93;14.83;;;;;;;;;;6229149;22;20386;-93
2024/01/11 09:33:45;;;;;;;22.60;15.20;;;;;;;;;;6204251;22;20360;-92
2024/01/11 09:36:11;;;;;;;18.17;11.57;;;;;;;;;;6201970;23;20434;-91
2024/01/11 09:38:37;;;;;;;20.83;14.27;;;;;;;;;;6202471;22;20375;-92
2024/01/11 09:41:11;;;;;;;15.30;12.67;;;;;;;;;;6198178;23;20674;-91
2024/01/11 09:43:37;;;;;;;26.60;15.90;;;;;;;;;;6194523;23;20387;-91
2024/01/11 09:46:07;;;;;;;22.10;14.97;;;;;;;;;;6198300;23;20387;-91
2024/01/11 09:48:33;;;;;;;19.50;13.10;;;;;;;;;;6198047;23;21086;-93
2024/01/11 09:50:59;;;;;;;23.93;12.50;;;;;;;;;;6195062;23;20411;-92
2024/01/11 09:53:26;;;;;;;19.17;10.83;;;;;;;;;;6193246;23;20380;-92
2024/01/11 09:55:52;;;;;;;16.80;11.43;;;;;;;;;;6193488;23;20420;-92
2024/01/11 09:58:18;;;;;;;17.77;13.47;;;;;;;;;;6191516;23;20822;-90
2024/01/11 10:00:44;;;;;;;17.73;11.53;;;;;;;;;;6200992;23;20391;-92
2024/01/11 10:03:10;;;;;;;27.40;14.43;;;;;;;;;;6194083;23;20859;-92
2024/01/11 10:05:37;;;;;;;31.33;15.73;;;;;;;;;;6195597;23;20842;-92
2024/01/11 10:08:05;;;;;;;19.20;13.50;;;;;;;;;;6199151;23;20371;-92
2024/01/11 10:10:32;;;;;;;28.60;15.30;;;;;;;;;;6196564;23;20371;-91
2024/01/11 10:12:58;;;;;;;29.90;14.57;;;;;;;;;;6197788;23;20379;-91
2024/01/11 10:15:24;;;;;;;23.43;14.37;;;;;;;;;;6193462;23;20391;-92
2024/01/11 10:17:50;;;;;;;19.47;14.83;;;;;;;;;;6197192;22;20407;-90
2024/01/11 10:20:16;;;;;;;28.37;12.57;;;;;;;;;;6192823;23;20375;-92
2024/01/11 10:22:43;;;;;;;23.87;14.90;;;;;;;;;;6191109;23;20902;-90
2024/01/11 10:25:12;;;;;;;28.90;15.40;;;;;;;;;;6192289;23;20397;-91
2024/01/11 10:27:41;;;;;;;26.93;17.53;;;;;;;;;;6194417;23;20458;-91
2024/01/11 10:30:08;;;;;;;28.87;15.30;;;;;;;;;;6193473;23;20383;-93
2024/01/11 10:32:36;;;;;;;33.70;19.33;;;;;;;;;;6196491;23;20422;-92
2024/01/11 10:35:04;;;;;;;19.33;16.20;;;;;;;;;;6193239;23;21197;-92
2024/01/11 10:37:31;;;;;;;24.07;15.00;;;;;;;;;;6195983;23;20422;-91
2024/01/11 10:39:57;;;;;;;25.87;14.83;;;;;;;;;;6194537;23;20380;-91
2024/01/11 10:42:23;;;;;;;27.90;17.50;;;;;;;;;;6198090;23;20411;-91
2024/01/11 10:44:50;;;;;;;35.13;17.67;;;;;;;;;;6197135;23;20387;-91
2024/01/11 10:47:16;;;;;;;29.80;15.77;;;;;;;;;;6200761;23;20394;-92
2024/01/11 10:49:42;;;;;;;40.13;20.17;;;;;;;;;;6195103;23;20379;-92
2024/01/11 10:52:08;;;;;;;29.40;18.20;;;;;;;;;;6195555;23;20441;-92
2024/01/11 10:54:34;;;;;;;30.07;16.47;;;;;;;;;;6196129;23;20391;-91
2024/01/11 10:57:00;;;;;;;26.20;15.30;;;;;;;;;;6196396;23;20902;-92
2024/01/11 10:59:30;;;;;;;29.70;16.17;;;;;;;;;;6194573;23;20400;-91
2024/01/11 11:01:56;;;;;;;23.90;15.20;;;;;;;;;;6195583;23;20395;-91
2024/01/11 11:04:25;;;;;;;25.53;16.70;;;;;;;;;;6195515;23;20387;-91
2024/01/11 11:06:51;;;;;;;23.13;16.90;;;;;;;;;;6195022;23;20379;-92
2024/01/11 11:09:18;;;;;;;34.10;16.53;;;;;;;;;;6224049;23;20371;-91
2024/01/11 11:11:44;;;;;;;23.40;14.70;;;;;;;;;;6198332;23;20879;-90
2024/01/11 11:14:10;;;;;;;29.20;15.17;;;;;;;;;;6198007;23;20386;-91
2024/01/11 11:16:36;;;;;;;23.27;17.10;;;;;;;;;;6195774;22;20407;-91
2024/01/11 11:19:02;;;;;;;28.70;17.17;;;;;;;;;;6223383;23;20390;-92
2024/01/11 11:21:28;;;;;;;30.73;16.93;;;;;;;;;;6219565;23;20363;-93
2024/01/11 11:23:56;;;;;;;25.20;17.07;;;;;;;;;;6220074;23;20858;-92
2024/01/11 11:26:22;;;;;;;29.77;15.93;;;;;;;;;;6195986;23;20382;-93
2024/01/11 11:28:48;;;;;;;28.03;18.73;;;;;;;;;;6199526;23;20403;-91
2024/01/11 11:31:14;;;;;;;23.37;17.27;;;;;;;;;;6194461;23;20382;-92
2024/01/11 11:33:41;;;;;;;29.77;16.80;;;;;;;;;;6195391;23;20379;-92
2024/01/11 11:36:07;;;;;;;32.57;17.60;;;;;;;;;;6221541;23;20830;-92
2024/01/11 11:38:33;;;;;;;31.10;18.67;;;;;;;;;;6196633;23;20510;-93
2024/01/11 11:40:59;;;;;;;29.53;17.73;;;;;;;;;;6195638;23;20394;-93
2024/01/11 11:43:27;;;;;;;38.83;19.07;;;;;;;;;;6194045;23;20375;-94
2024/01/11 11:45:54;;;;;;;31.20;18.67;;;;;;;;;;6195230;23;20945;-92
2024/01/11 11:48:32;;;;;;;27.53;18.23;;;;;;;;;;6194073;23;20379;-95
2024/01/11 11:51:08;;;;;;;26.13;17.57;;;;;;;;;;6216617;23;20882;-93
2024/01/11 11:53:36;;;;;;;27.87;20.70;;;;;;;;;;6221010;23;20383;-94
2024/01/11 11:56:02;;;;;;;34.07;19.90;;;;;;;;;;6194245;23;20379;-93
2024/01/11 11:58:32;;;;;;;33.07;20.77;;;;;;;;;;6199956;23;20461;-94
2024/01/11 12:00:58;;;;;;;36.77;21.10;;;;;;;;;;6195473;23;20928;-94
2024/01/11 12:03:37;;;;;;;32.93;20.40;;;;;;;;;;6198658;23;20391;-95
2024/01/11 12:06:03;;;;;;;27.03;18.40;;;;;;;;;;6197269;23;20375;-94
2024/01/11 12:08:29;;;;;;;29.77;19.23;;;;;;;;;;6200162;23;20881;-93
2024/01/11 12:10:56;;;;;;;32.33;19.70;;;;;;;;;;6197081;23;20383;-94
2024/01/11 12:13:22;;;;;;;30.20;19.60;;;;;;;;;;6200019;23;20384;-94
2024/01/11 12:15:48;;;;;;;33.33;22.00;;;;;;;;;;6199444;23;20375;-94
2024/01/11 12:18:14;;;;;;;25.80;19.50;;;;;;;;;;6200366;23;20434;-94
2024/01/11 12:20:40;;;;;;;36.10;22.37;;;;;;;;;;6199053;23;20387;-94
2024/01/11 12:23:06;;;;;;;32.23;19.63;;;;;;;;;;6201866;23;20363;-93
2024/01/11 12:25:33;;;;;;;38.53;21.07;;;;;;;;;;6197564;23;21040;-93
2024/01/11 12:27:59;;;;;;;23.20;17.80;;;;;;;;;;6197293;23;20411;-94
2024/01/11 12:30:31;;;;;;;27.70;17.33;;;;;;;;;;6197186;23;20386;-94
2024/01/11 12:33:01;;;;;;;30.30;17.90;;;;;;;;;;6199611;23;20375;-94
2024/01/11 12:35:27;;;;;;;28.57;17.13;;;;;;;;;;6198781;23;20389;-92
2024/01/11 12:38:06;;;;;;;32.90;16.67;;;;;;;;;;6197377;23;20423;-93
2024/01/11 12:40:40;;;;;;;24.53;16.17;;;;;;;;;;6221471;23;20378;-92
2024/01/11 12:43:07;;;;;;;26.83;15.53;;;;;;;;;;6197945;23;20375;-93
2024/01/11 12:45:33;;;;;;;21.27;13.20;;;;;;;;;;6198567;23;20383;-92
2024/01/11 12:48:03;;;;;;;22.53;15.13;;;;;;;;;;6200067;23;20383;-93
2024/01/11 12:50:32;;;;;;;24.17;16.20;;;;;;;;;;6198146;23;20379;-93
2024/01/11 12:53:19;;;;;;;29.10;18.13;;;;;;;;;;6199467;23;20393;-93
2024/01/11 12:55:46;;;;;;;28.13;15.20;;;;;;;;;;6222798;23;20649;-93
2024/01/11 12:58:12;;;;;;;28.53;14.77;;;;;;;;;;6195810;23;20461;-94
2024/01/11 13:00:38;;;;;;;27.10;15.40;;;;;;;;;;6195355;23;20442;-94
2024/01/11 13:03:05;;;;;;;30.87;16.50;;;;;;;;;;6196933;23;20441;-93
2024/01/11 13:05:34;;;;;;;25.03;16.23;;;;;;;;;;6194773;23;20383;-94
2024/01/11 13:08:05;;;;;;;28.10;17.20;;;;;;;;;;6195750;23;20445;-93
2024/01/11 13:10:31;;;;;;;26.90;15.87;;;;;;;;;;6195875;23;20395;-94
2024/01/11 13:12:59;;;;;;;29.87;16.10;;;;;;;;;;6196362;23;20387;-93
2024/01/11 13:15:25;;;;;;;30.80;15.70;;;;;;;;;;6195201;23;20390;-95
2024/01/11 13:17:54;;;;;;;29.43;17.23;;;;;;;;;;6195983;23;20949;-94
2024/01/11 13:20:20;;;;;;;31.33;16.07;;;;;;;;;;6193783;23;20402;-94
2024/01/11 13:22:47;;;;;;;24.50;15.33;;;;;;;;;;6194836;23;20389;-93
2024/01/11 13:25:13;;;;;;;31.63;17.77;;;;;;;;;;6197058;23;20442;-94
2024/01/11 13:27:39;;;;;;;34.60;17.97;;;;;;;;;;6194119;23;20383;-94
2024/01/11 13:30:08;;;;;;;26.17;16.97;;;;;;;;;;6193840;23;20413;-95
2024/01/11 13:32:34;;;;;;;30.27;17.80;;;;;;;;;;6195016;22;20383;-94
2024/01/11 13:35:00;;;;;;;28.13;16.90;;;;;;;;;;6196277;23;20391;-94
2024/01/11 13:37:26;;;;;;;26.43;14.17;;;;;;;;;;6197513;23;20419;-95
2024/01/11 13:39:52;;;;;;;23.13;14.57;;;;;;;;;;6197095;23;20379;-94
2024/01/11 13:42:18;;;;;;;28.47;16.40;;;;;;;;;;6198417;23;20379;-95
2024/01/11 13:47:20;;;;;;;27.93;14.50;;;;;;;;;;6269176;22;20420;-92
2024/01/11 13:49:46;;;;;;;25.80;14.67;;;;;;;;;;6229288;22;20382;-93
2024/01/11 13:52:15;;;;;;;32.23;15.47;;;;;;;;;;6230481;22;20384;-94
2024/01/11 13:54:41;;;;;;;27.63;15.77;;;;;;;;;;6256801;22;20459;-94
2024/01/11 13:57:08;;;;;;;33.93;16.50;;;;;;;;;;6234291;22;21054;-96
2024/01/11 13:59:34;;;;;;;31.00;17.60;;;;;;;;;;6258447;22;20424;-92
2024/01/11 14:02:00;;;;;;;31.43;18.17;;;;;;;;;;6233065;22;20377;-95
2024/01/11 14:04:26;;;;;;;35.30;20.90;;;;;;;;;;6233711;22;20412;-94
2024/01/11 14:06:52;;;;;;;30.10;18.33;;;;;;;;;;6233685;22;20382;-94
2024/01/11 14:09:18;;;;;;;27.53;19.30;;;;;;;;;;6232613;22;20416;-94
2024/01/11 14:11:44;;;;;;;29.70;17.50;;;;;;;;;;6233243;22;20878;-94
2024/01/11 14:14:10;;;;;;;33.40;19.13;;;;;;;;;;6232185;22;20389;-94
2024/01/11 14:16:36;;;;;;;34.63;19.13;;;;;;;;;;6232445;22;20404;-94
2024/01/11 14:19:02;;;;;;;31.63;18.77;;;;;;;;;;6232337;22;20393;-93
2024/01/11 14:21:28;;;;;;;26.53;16.00;;;;;;;;;;6232290;22;20412;-92
2024/01/11 14:23:57;;;;;;;33.83;16.27;;;;;;;;;;6231596;22;20431;-94
2024/01/11 14:26:24;;;;;;;28.77;16.07;;;;;;;;;;6233899;22;20459;-93
2024/01/11 14:28:51;;;;;;;32.70;19.43;;;;;;;;;;6234382;22;20827;-96
2024/01/11 14:31:17;;;;;;;24.03;15.90;;;;;;;;;;6259623;22;20373;-95
2024/01/11 14:33:44;;;;;;;29.80;20.30;;;;;;;;;;6258961;22;20381;-93
2024/01/11 14:36:10;;;;;;;29.00;18.30;;;;;;;;;;6233295;22;20412;-95